createdAt,value
2019-05-15T00:00:48.021Z,2.50
2019-05-15T00:03:19.781Z,2.02
2019-05-15T00:05:51.710Z,2.58
2019-05-15T00:08:22.776Z,1.92
2019-05-15T00:10:53.856Z,2.05
2019-05-15T00:13:25.430Z,2.17
2019-05-15T00:15:59.018Z,2.27
2019-05-15T00:18:30.387Z,2.15
2019-05-15T00:21:01.587Z,1.98
2019-05-15T00:23:33.355Z,2.40
2019-05-15T00:26:05.643Z,2.05
2019-05-15T00:28:38.818Z,2.40
2019-05-15T00:31:09.833Z,2.83
2019-05-15T00:33:41.237Z,2.45
2019-05-15T00:36:12.349Z,2.70
2019-05-15T00:38:44.063Z,3.60
2019-05-15T00:41:18.342Z,2.20
2019-05-15T00:43:49.541Z,2.05
2019-05-15T00:46:20.758Z,2.65
2019-05-15T00:48:51.922Z,2.37
2019-05-15T00:51:24.094Z,2.13
2019-05-15T00:53:55.494Z,1.90
2019-05-15T00:56:28.535Z,1.80
2019-05-15T00:58:59.617Z,2.17
2019-05-15T01:01:31.829Z,2.10
2019-05-15T01:04:03.938Z,2.70
2019-05-15T01:06:35.401Z,2.07
2019-05-15T01:09:08.337Z,2.30
2019-05-15T01:11:40.779Z,1.70
2019-05-15T01:14:12.425Z,1.90
2019-05-15T01:16:43.460Z,2.02
2019-05-15T01:19:15.111Z,2.00
2019-05-15T01:21:48.104Z,2.20
2019-05-15T01:24:19.448Z,1.90
2019-05-15T01:26:50.572Z,2.43
2019-05-15T01:29:36.482Z,1.90
2019-05-15T01:31:59.122Z,2.10
2019-05-15T01:34:29.895Z,3.70
2019-05-15T01:37:01.275Z,3.20
2019-05-15T01:39:32.451Z,3.20
2019-05-15T01:42:04.368Z,2.80
2019-05-15T01:44:36.308Z,2.13
2019-05-15T01:47:08.506Z,2.30
2019-05-15T01:49:40.147Z,1.97
2019-05-15T01:52:12.068Z,2.30
2019-05-15T01:54:43.230Z,2.10
2019-05-15T01:57:14.657Z,2.27
2019-05-15T01:59:54.788Z,2.13
2019-05-15T02:02:20.397Z,2.17
2019-05-15T02:04:51.817Z,2.40
2019-05-15T02:07:23.601Z,2.50
2019-05-15T02:09:54.788Z,2.20
2019-05-15T02:12:28.593Z,2.57
2019-05-15T02:14:59.186Z,2.20
2019-05-15T02:17:32.000Z,1.93
2019-05-15T02:20:04.053Z,2.00
2019-05-15T02:22:35.217Z,2.47
2019-05-15T02:25:08.613Z,1.90
2019-05-15T02:27:40.183Z,2.13
2019-05-15T02:30:22.406Z,1.90
2019-05-15T02:32:45.428Z,2.50
2019-05-15T02:35:18.578Z,2.37
2019-05-15T02:37:50.078Z,2.27
2019-05-15T02:40:22.035Z,2.07
2019-05-15T02:42:53.752Z,2.43
2019-05-15T02:45:25.274Z,2.30
2019-05-15T02:47:59.468Z,2.07
2019-05-15T02:50:29.417Z,1.90
2019-05-15T02:53:00.947Z,2.20
2019-05-15T02:55:32.022Z,2.23
2019-05-15T02:58:03.058Z,2.30
2019-05-15T03:00:43.906Z,2.20
2019-05-15T03:03:09.473Z,2.70
2019-05-15T03:05:41.242Z,2.30
2019-05-15T03:08:12.808Z,2.50
2019-05-15T03:10:44.023Z,2.00
2019-05-15T03:13:18.780Z,2.70
2019-05-15T03:15:49.281Z,2.50
2019-05-15T03:18:21.061Z,2.57
2019-05-15T03:20:52.436Z,2.27
2019-05-15T03:23:23.871Z,2.70
2019-05-15T03:25:55.469Z,2.90
2019-05-15T03:28:29.499Z,2.30
2019-05-15T03:31:26.245Z,2.47
2019-05-15T03:33:45.477Z,2.37
2019-05-15T03:36:14.279Z,2.63
2019-05-15T03:38:49.601Z,2.43
2019-05-15T03:41:19.711Z,2.07
2019-05-15T03:43:51.028Z,2.70
2019-05-15T03:46:22.079Z,2.80
2019-05-15T03:48:53.780Z,2.50
2019-05-15T03:51:24.998Z,3.30
2019-05-15T03:54:00.068Z,3.03
2019-05-15T03:56:29.749Z,2.70
2019-05-15T03:59:01.460Z,3.03
2019-05-15T04:01:38.797Z,2.70
2019-05-15T04:04:09.438Z,2.70
2019-05-15T04:06:39.667Z,2.37
2019-05-15T04:09:12.222Z,2.43
2019-05-15T04:11:43.808Z,2.53
2019-05-15T04:14:15.264Z,2.23
2019-05-15T04:16:49.535Z,2.57
2019-05-15T04:19:20.113Z,2.37
2019-05-15T04:21:51.596Z,2.27
2019-05-15T04:24:25.818Z,2.87
2019-05-15T04:27:00.024Z,2.43
2019-05-15T04:29:32.284Z,2.63
2019-05-15T04:32:05.961Z,2.97
2019-05-15T04:34:39.475Z,2.70
2019-05-15T04:37:09.796Z,2.90
2019-05-15T04:39:41.063Z,19.67
2019-05-15T04:42:12.902Z,19.47
2019-05-15T04:44:44.662Z,6.43
2019-05-15T04:47:19.006Z,13.73
2019-05-15T04:49:50.364Z,11.13
2019-05-15T04:52:22.796Z,4.90
2019-05-15T04:54:54.256Z,3.40
2019-05-15T04:57:29.044Z,3.13
2019-05-15T04:59:59.590Z,3.67
2019-05-15T05:02:32.400Z,4.10
2019-05-15T05:05:09.681Z,4.30
2019-05-15T05:07:39.547Z,4.37
2019-05-15T05:10:11.465Z,4.70
2019-05-15T05:12:43.112Z,3.80
2019-05-15T05:15:14.600Z,3.37
2019-05-15T05:17:45.972Z,3.70
2019-05-15T05:20:17.929Z,3.53
2019-05-15T05:22:49.507Z,4.40
2019-05-15T05:25:21.336Z,4.57
2019-05-15T05:27:52.817Z,4.20
2019-05-15T05:30:24.075Z,4.03
2019-05-15T05:32:57.920Z,5.03
2019-05-15T05:35:28.860Z,4.23
2019-05-15T05:38:00.628Z,4.20
2019-05-15T05:40:32.431Z,3.37
2019-05-15T05:43:03.841Z,3.67
2019-05-15T05:45:35.247Z,3.80
2019-05-15T05:48:08.824Z,4.27
2019-05-15T05:50:44.314Z,3.77
2019-05-15T05:53:15.125Z,4.73
2019-05-15T05:55:46.099Z,4.47
2019-05-15T05:58:19.653Z,3.47
2019-05-15T06:00:51.098Z,4.23
2019-05-15T06:03:22.343Z,4.40
2019-05-15T06:05:54.096Z,4.23
2019-05-15T06:08:25.029Z,3.80
2019-05-15T06:10:58.327Z,3.43
2019-05-15T06:13:29.250Z,4.07
2019-05-15T06:16:00.577Z,3.90
2019-05-15T06:18:32.416Z,4.07
2019-05-15T06:21:03.258Z,4.10
2019-05-15T06:23:36.217Z,4.23
2019-05-15T06:26:09.608Z,4.27
2019-05-15T06:28:41.017Z,4.00
2019-05-15T06:31:12.299Z,3.80
2019-05-15T06:33:44.710Z,3.40
2019-05-15T06:36:17.989Z,3.67
2019-05-15T06:38:49.623Z,3.43
2019-05-15T06:41:21.497Z,3.57
2019-05-15T06:43:53.158Z,3.40
2019-05-15T06:46:24.956Z,3.23
2019-05-15T06:48:58.123Z,4.37
2019-05-15T06:51:30.292Z,4.00
2019-05-15T06:54:03.951Z,4.03
2019-05-15T06:56:35.371Z,4.20
2019-05-15T06:59:08.667Z,5.23
2019-05-15T07:01:40.703Z,3.83
2019-05-15T07:04:12.424Z,4.17
2019-05-15T07:06:44.068Z,4.30
2019-05-15T07:09:17.958Z,4.83
2019-05-15T07:11:49.202Z,3.97
2019-05-15T07:14:20.624Z,3.60
2019-05-15T07:16:51.649Z,3.50
2019-05-15T07:19:22.607Z,3.47
2019-05-15T07:21:54.330Z,2.93
2019-05-15T07:24:25.269Z,3.93
2019-05-15T07:26:58.945Z,3.83
2019-05-15T07:29:29.474Z,3.67
2019-05-15T07:32:00.269Z,3.70
2019-05-15T07:34:33.787Z,4.00
2019-05-15T07:37:04.607Z,3.47
2019-05-15T07:39:35.362Z,4.23
2019-05-15T07:42:08.445Z,4.83
2019-05-15T07:44:39.101Z,4.60
2019-05-15T07:47:09.793Z,3.83
2019-05-15T07:49:41.507Z,3.80
2019-05-15T07:52:12.348Z,3.80
2019-05-15T07:54:43.181Z,4.33
2019-05-15T07:57:13.837Z,3.37
2019-05-15T07:59:44.535Z,5.13
2019-05-15T08:02:15.365Z,4.70
2019-05-15T08:04:48.270Z,3.87
2019-05-15T08:07:19.333Z,5.33
2019-05-15T08:09:50.876Z,4.37
2019-05-15T08:12:21.600Z,4.20
2019-05-15T08:14:52.571Z,3.70
2019-05-15T08:17:28.973Z,7.50
2019-05-15T08:20:02.591Z,6.00
2019-05-15T08:22:34.928Z,4.47
2019-05-15T08:25:11.296Z,6.50
2019-05-15T08:27:40.221Z,5.07
2019-05-15T08:30:14.050Z,4.70
2019-05-15T08:32:45.301Z,5.17
2019-05-15T08:35:19.179Z,4.60
2019-05-15T08:37:50.937Z,5.67
2019-05-15T08:40:21.927Z,4.63
2019-05-15T08:42:58.687Z,3.70
2019-05-15T08:45:25.298Z,4.43
2019-05-15T08:47:58.509Z,4.80
2019-05-15T08:50:28.864Z,4.13
2019-05-15T08:52:59.877Z,4.57
2019-05-15T08:55:30.978Z,5.77
2019-05-15T08:58:07.855Z,6.07
2019-05-15T09:00:34.585Z,4.17
2019-05-15T09:03:08.567Z,4.07
2019-05-15T09:05:39.417Z,5.00
2019-05-15T09:08:10.757Z,4.43
2019-05-15T09:10:41.773Z,5.00
2019-05-15T09:13:12.701Z,4.63
2019-05-15T09:15:44.121Z,5.30
2019-05-15T09:18:17.289Z,4.73
2019-05-15T09:20:49.499Z,4.70
2019-05-15T09:23:20.670Z,5.63
2019-05-15T09:25:51.618Z,4.80
2019-05-15T09:28:22.877Z,4.23
2019-05-15T09:30:53.529Z,4.10
2019-05-15T09:33:24.453Z,6.70
2019-05-15T09:35:54.984Z,4.42
2019-05-15T09:38:25.885Z,5.13
2019-05-15T09:40:58.540Z,5.20
2019-05-15T09:43:29.481Z,7.00
2019-05-15T09:46:00.190Z,18.37
2019-05-15T09:48:31.499Z,6.85
2019-05-15T09:51:02.177Z,12.33
2019-05-15T09:53:34.653Z,12.05
2019-05-15T09:56:08.079Z,14.73
2019-05-15T09:58:38.998Z,56.77
2019-05-15T10:01:09.779Z,46.00
2019-05-15T10:03:44.324Z,63.87
2019-05-15T10:06:13.798Z,41.40
2019-05-15T10:08:48.724Z,13.30
2019-05-15T10:11:19.737Z,13.77
2019-05-15T10:13:50.840Z,31.05
2019-05-15T10:16:21.737Z,17.73
2019-05-15T10:18:52.527Z,12.73
2019-05-15T10:21:28.705Z,10.97
2019-05-15T10:23:58.828Z,8.80
2019-05-15T10:26:28.651Z,16.53
2019-05-15T10:28:59.578Z,9.68
2019-05-15T10:31:30.458Z,7.80
2019-05-15T10:34:02.524Z,6.28
2019-05-15T10:36:33.498Z,7.60
2019-05-15T10:39:08.381Z,8.60
2019-05-15T10:41:39.401Z,9.20
2019-05-15T10:44:10.419Z,9.53
2019-05-15T10:46:41.270Z,10.93
2019-05-15T10:49:12.480Z,27.60
2019-05-15T10:51:43.240Z,25.50
2019-05-15T10:54:14.403Z,12.73
2019-05-15T10:56:45.994Z,8.38
2019-05-15T10:59:18.299Z,7.12
2019-05-15T11:01:49.780Z,6.57
2019-05-15T11:04:22.033Z,6.20
2019-05-15T11:06:53.066Z,6.17
2019-05-15T11:09:24.075Z,6.17
2019-05-15T11:11:54.985Z,11.00
2019-05-15T11:14:28.474Z,11.90
2019-05-15T11:16:59.006Z,7.92
2019-05-15T11:19:36.100Z,7.30
2019-05-15T11:22:03.433Z,7.17
2019-05-15T11:24:34.332Z,6.47
2019-05-15T11:27:05.558Z,6.77
2019-05-15T11:29:38.189Z,6.45
2019-05-15T11:32:08.968Z,7.50
2019-05-15T11:34:39.999Z,8.25
2019-05-15T11:37:11.319Z,8.18
2019-05-15T11:39:46.136Z,15.05
2019-05-15T11:42:14.827Z,13.25
2019-05-15T11:44:48.311Z,13.05
2019-05-15T11:47:18.557Z,12.70
2019-05-15T11:49:49.503Z,9.00
2019-05-15T11:52:20.564Z,11.35
2019-05-15T11:54:51.696Z,11.20
2019-05-15T11:57:37.338Z,8.15
2019-05-15T11:59:59.439Z,10.08
2019-05-15T12:02:30.845Z,9.38
2019-05-15T12:05:02.202Z,8.45
2019-05-15T12:07:33.277Z,6.92
2019-05-15T12:10:09.851Z,6.90
2019-05-15T12:12:38.912Z,7.78
2019-05-15T12:15:10.658Z,9.48
2019-05-15T12:17:42.085Z,7.35
2019-05-15T12:20:13.480Z,18.95
2019-05-15T12:22:44.341Z,9.45
2019-05-15T12:25:18.000Z,7.60
2019-05-15T12:27:49.239Z,6.40
2019-05-15T12:30:21.888Z,8.83
2019-05-15T12:32:52.737Z,7.05
2019-05-15T12:35:30.489Z,8.78
2019-05-15T12:38:04.385Z,7.67
2019-05-15T13:01:16.518Z,12.40
2019-05-15T13:03:35.585Z,9.50
2019-05-15T13:06:08.081Z,8.68
2019-05-15T13:08:48.899Z,8.65
2019-05-15T13:11:23.798Z,8.05
2019-05-15T13:13:54.618Z,10.40
2019-05-15T13:16:28.011Z,11.28
2019-05-15T13:18:58.789Z,10.43
2019-05-15T13:21:29.845Z,17.65
2019-05-15T13:24:01.868Z,9.90
2019-05-15T13:26:32.778Z,17.33
2019-05-15T13:29:03.551Z,11.30
2019-05-15T13:31:34.440Z,12.53
2019-05-15T13:34:07.962Z,11.20
2019-05-15T13:36:39.261Z,11.15
2019-05-15T13:39:10.377Z,11.38
2019-05-15T13:41:41.466Z,10.53
2019-05-15T13:44:12.525Z,7.60
2019-05-15T13:46:43.190Z,6.87
2019-05-15T13:49:14.059Z,8.75
2019-05-15T14:31:48.351Z,6.70
2019-05-15T15:37:08.231Z,79.75
2019-05-15T16:32:24.707Z,16.20
2019-05-15T16:34:55.778Z,8.60
2019-05-15T18:36:13.953Z,45.70
2019-05-15T18:38:44.983Z,20.45
2019-05-15T18:41:17.990Z,22.55
2019-05-15T18:43:48.739Z,37.60
2019-05-15T18:46:19.515Z,24.60
2019-05-15T18:48:50.256Z,38.28
2019-05-15T18:51:21.011Z,35.45
2019-05-15T18:53:51.862Z,23.65
2019-05-15T18:56:22.772Z,24.65
2019-05-15T18:58:54.056Z,15.13
2019-05-15T19:01:25.099Z,18.82
2019-05-15T19:03:58.167Z,11.03
2019-05-15T19:06:29.359Z,14.10
2019-05-15T19:09:00.832Z,11.63
2019-05-15T19:11:33.489Z,13.28
2019-05-15T19:14:04.682Z,12.15
2019-05-15T19:16:38.710Z,11.97
2019-05-15T19:19:09.675Z,14.20
2019-05-15T19:21:40.937Z,15.18
2019-05-15T19:24:11.791Z,12.73
2019-05-15T19:26:43.379Z,10.03
2019-05-15T19:29:17.821Z,10.15
2019-05-15T19:31:48.528Z,9.85
2019-05-15T19:34:19.630Z,9.45
2019-05-15T19:36:50.464Z,10.50
2019-05-15T19:39:23.282Z,8.80
2019-05-15T19:41:58.278Z,8.60
2019-05-15T19:44:29.693Z,7.53
2019-05-15T19:47:02.958Z,7.53
2019-05-15T19:49:33.919Z,6.65
2019-05-15T19:52:05.039Z,9.70
2019-05-15T19:54:38.222Z,8.15
2019-05-15T19:57:12.815Z,6.78
2019-05-15T19:59:44.725Z,9.40
2019-05-15T20:02:28.566Z,7.62
2019-05-15T20:05:18.422Z,7.50
2019-05-15T20:08:03.226Z,6.67
2019-05-15T20:10:50.070Z,7.53
2019-05-15T20:13:49.669Z,5.77
2019-05-15T20:16:28.593Z,5.22
2019-05-15T20:19:02.791Z,5.50
2019-05-15T20:21:34.454Z,5.42
2019-05-15T20:24:08.498Z,5.17
2019-05-15T20:26:40.061Z,5.42
2019-05-15T20:29:14.189Z,5.70
2019-05-15T20:31:48.205Z,4.85
2019-05-15T20:34:18.238Z,5.10
2019-05-15T20:36:49.437Z,4.92
2019-05-15T20:39:21.205Z,4.80
2019-05-15T20:42:08.864Z,4.43
2019-05-15T20:45:08.378Z,4.55
2019-05-15T20:47:43.677Z,5.05
2019-05-15T20:50:15.231Z,5.17
2019-05-15T20:52:48.833Z,4.58
2019-05-15T20:55:19.098Z,5.03
2019-05-15T20:58:01.424Z,4.77
2019-05-15T21:00:40.795Z,5.30
2019-05-15T21:03:23.190Z,4.75
2019-05-15T21:05:57.737Z,4.97
2019-05-15T21:08:31.795Z,5.30
2019-05-15T21:11:04.073Z,5.20
2019-05-15T21:13:35.396Z,4.78
2019-05-15T21:16:08.342Z,5.03
2019-05-15T21:18:41.548Z,4.40
2019-05-15T21:21:12.834Z,3.83
2019-05-15T21:23:44.138Z,3.47
2019-05-15T21:26:18.605Z,3.67
2019-05-15T21:28:49.619Z,3.90
2019-05-15T21:31:22.106Z,4.10
2019-05-15T21:33:53.432Z,4.43
2019-05-15T21:36:24.863Z,4.67
2019-05-15T21:38:58.516Z,3.87
2019-05-15T21:41:29.299Z,3.63
2019-05-15T21:44:01.061Z,3.90
2019-05-15T21:46:32.702Z,3.52
2019-05-15T21:49:04.031Z,4.08
2019-05-15T21:51:35.357Z,3.62
2019-05-15T21:54:06.705Z,3.90
2019-05-15T21:56:38.766Z,4.25
2019-05-15T21:59:09.848Z,4.20
2019-05-15T22:01:42.181Z,3.70
2019-05-15T22:04:13.839Z,3.65
2019-05-15T22:06:45.632Z,3.70
2019-05-15T22:09:18.705Z,3.53
2019-05-15T22:11:50.217Z,3.40
2019-05-15T22:14:21.605Z,3.57
2019-05-15T22:16:53.145Z,3.33
2019-05-15T22:19:25.054Z,3.30
2019-05-15T22:21:58.205Z,3.25
2019-05-15T22:24:29.182Z,2.90
2019-05-15T22:27:00.092Z,3.43
2019-05-15T22:29:31.544Z,3.65
2019-05-15T22:32:03.100Z,3.43
2019-05-15T22:34:34.437Z,3.60
2019-05-15T22:37:08.950Z,3.65
2019-05-15T22:39:39.702Z,2.97
2019-05-15T22:42:11.622Z,3.83
2019-05-15T22:44:42.807Z,3.00
2019-05-15T22:47:13.766Z,3.50
2019-05-15T22:49:45.063Z,2.63
2019-05-15T22:52:18.454Z,3.97
2019-05-15T22:54:49.150Z,3.27
2019-05-15T22:57:20.266Z,3.20
2019-05-15T22:59:51.322Z,3.22
2019-05-15T23:02:22.836Z,3.10
2019-05-15T23:04:54.419Z,3.13
2019-05-15T23:07:28.008Z,3.10
2019-05-15T23:09:59.192Z,3.47
2019-05-15T23:12:30.619Z,2.92
2019-05-15T23:15:02.300Z,2.47
2019-05-15T23:17:33.581Z,3.02
2019-05-15T23:20:08.667Z,2.77
2019-05-15T23:22:40.307Z,2.70
2019-05-15T23:25:12.035Z,2.65
2019-05-15T23:27:43.768Z,3.43
2019-05-15T23:30:14.933Z,2.60
2019-05-15T23:32:48.637Z,3.70
2019-05-15T23:35:19.258Z,3.50
2019-05-15T23:37:50.300Z,3.33
2019-05-15T23:40:21.582Z,3.22
2019-05-15T23:42:53.181Z,3.00
2019-05-15T23:45:24.581Z,3.08
2019-05-15T23:47:57.991Z,2.50
2019-05-15T23:50:29.047Z,2.90
2019-05-15T23:53:00.439Z,2.80
2019-05-15T23:55:32.013Z,3.60
2019-05-15T23:58:03.871Z,2.95
